Time;durP1;ratioP1;P1;durP2;ratioP2;P2;SDS_P1;SDS_P2;PMS_P1;PMS_P2;Temp;Humidity;BMP_temperature;BMP_pressure;BME280_temperature;BME280_humidity;BME280_pressure;Samples;Min_cycle;Max_cycle;Signal;HPM_P1;HPM_P2
2021/11/13 00:00:09;;;;;;;;;;;;;;;;;;1022103;29;1448;-21
2021/11/13 00:00:46;;;;;;;;;;;;;;;;;;1022353;29;936;-22
2021/11/13 00:01:17;;;;;;;;;;;;;;;;;;1022285;29;812;-23
2021/11/13 00:01:47;;;;;;;;;;;;;;;;;;1022083;29;1962;-22
2021/11/13 00:02:17;;;;;;;;;;;;;;;;;;1022342;29;1088;-22
2021/11/13 00:02:48;;;;;;;;;;;;;;;;;;1022216;29;799;-21
2021/11/13 00:03:18;;;;;;;;;;;;;;;;;;1022133;29;1041;-21
2021/11/13 00:03:49;;;;;;;;;;;;;;;;;;1018065;29;902;-22
2021/11/13 00:04:19;;;;;;;;;;;;;;;;;;1017878;29;827;-22
2021/11/13 00:04:49;;;;;;;;;;;;;;;;;;1017798;29;867;-21
2021/11/13 00:05:20;;;;;;;;;;;;;;;;;;1018200;29;976;-21
2021/11/13 00:05:50;;;;;;;;;;;;;;;;;;1022249;29;835;-21
2021/11/13 00:06:21;;;;;;;;;;;;;;;;;;1022263;29;1312;-22
2021/11/13 00:06:52;;;;;;;;;;;;;;;;;;1022133;29;971;-21
2021/11/13 00:07:22;;;;;;;;;;;;;;;;;;1022334;29;879;-22
2021/11/13 00:07:52;;;;;;;;;;;;;;;;;;1022270;29;1078;-22
2021/11/13 00:08:23;;;;;;;;;;;;;;;;;;1022341;29;895;-22
2021/11/13 00:08:57;;;;;;;;;;;;;;;;;;1017763;29;1350;-21
2021/11/13 00:09:27;;;;;;;;;;;;;;;;;;1017939;29;826;-21
2021/11/13 00:09:57;;;;;;;;;;;;;;;;;;1017931;29;887;-22
2021/11/13 00:10:28;;;;;;;;;;;;;;;;;;1017878;29;881;-20
2021/11/13 00:10:58;;;;;;;;;;;;;;;;;;1022128;29;1005;-21
2021/11/13 00:11:29;;;;;;;;;;;;;;;;;;1022289;29;947;-21
2021/11/13 00:11:59;;;;;;;;;;;;;;;;;;1022171;29;913;-21
2021/11/13 00:12:29;;;;;;;;;;;;;;;;;;1022162;29;998;-24
2021/11/13 00:13:01;;;;;;;;;;;;;;;;;;1022460;29;991;-21
2021/11/13 00:13:32;;;;;;;;;;;;;;;;;;1021952;29;1121;-24
2021/11/13 00:14:03;;;;;;;;;;;;;;;;;;1022330;29;938;-21
2021/11/13 00:14:33;;;;;;;;;;;;;;;;;;1022169;29;1050;-23
2021/11/13 00:15:05;;;;;;;;;;;;;;;;;;1022088;29;934;-22
2021/11/13 00:15:35;;;;;;;;;;;;;;;;;;1022368;29;836;-21
2021/11/13 00:16:06;;;;;;;;;;;;;;;;;;1022361;29;841;-22
2021/11/13 00:16:37;;;;;;;;;;;;;;;;;;1022127;29;947;-23
2021/11/13 00:17:07;;;;;;;;;;;;;;;;;;1022250;29;870;-22
2021/11/13 00:17:37;;;;;;;;;;;;;;;;;;1022311;29;1007;-22
2021/11/13 00:18:09;;;;;;;;;;;;;;;;;;1022271;29;958;-22
2021/11/13 00:18:40;;;;;;;;;;;;;;;;;;1022305;29;1060;-21
2021/11/13 00:19:10;;;;;;;;;;;;;;;;;;1022060;29;784;-22
2021/11/13 00:19:40;;;;;;;;;;;;;;;;;;1022431;29;884;-22
2021/11/13 00:20:11;;;;;;;;;;;;;;;;;;1022167;29;886;-22
2021/11/13 00:20:41;;;;;;;;;;;;;;;;;;1022388;29;951;-23
2021/11/13 00:21:12;;;;;;;;;;;;;;;;;;1022183;29;979;-21
2021/11/13 00:21:42;;;;;;;;;;;;;;;;;;1022123;29;1975;-22
2021/11/13 00:22:14;;;;;;;;;;;;;;;;;;1022228;29;985;-22
2021/11/13 00:22:45;;;;;;;;;;;;;;;;;;1022253;29;905;-22
2021/11/13 00:23:15;;;;;;;;;;;;;;;;;;1022077;29;879;-21
2021/11/13 00:23:45;;;;;;;;;;;;;;;;;;1022341;29;946;-21
2021/11/13 00:24:16;;;;;;;;;;;;;;;;;;1021978;29;1037;-22
2021/11/13 00:24:52;;;;;;;;;;;;;;;;;;1022323;29;815;-21
2021/11/13 00:25:22;;;;;;;;;;;;;;;;;;1022053;29;983;-22
2021/11/13 00:25:53;;;;;;;;;;;;;;;;;;1022205;29;967;-22
2021/11/13 00:26:23;;;;;;;;;;;;;;;;;;1022244;29;916;-21
2021/11/13 00:26:54;;;;;;;;;;;;;;;;;;1021643;29;1323;-22
2021/11/13 00:27:24;;;;;;;;;;;;;;;;;;1022275;29;1187;-21
2021/11/13 00:27:55;;;;;;;;;;;;;;;;;;1022009;29;982;-21
2021/11/13 00:28:28;;;;;;;;;;;;;;;;;;1022035;29;915;-23
2021/11/13 00:28:58;;;;;;;;;;;;;;;;;;1022204;29;947;-23
2021/11/13 00:29:29;;;;;;;;;;;;;;;;;;1021904;29;978;-21
2021/11/13 00:29:59;;;;;;;;;;;;;;;;;;1022119;29;935;-22
2021/11/13 00:30:30;;;;;;;;;;;;;;;;;;1022110;29;988;-22
2021/11/13 00:31:00;;;;;;;;;;;;;;;;;;1022263;29;874;-23
2021/11/13 00:31:31;;;;;;;;;;;;;;;;;;1022156;29;984;-21
2021/11/13 00:32:02;;;;;;;;;;;;;;;;;;1022306;29;955;-22
2021/11/13 00:32:32;;;;;;;;;;;;;;;;;;1022123;29;859;-21
2021/11/13 00:33:03;;;;;;;;;;;;;;;;;;1022298;29;883;-21
2021/11/13 00:33:33;;;;;;;;;;;;;;;;;;1022063;29;1081;-22
2021/11/13 00:34:04;;;;;;;;;;;;;;;;;;1022007;29;1073;-23
2021/11/13 00:34:35;;;;;;;;;;;;;;;;;;1022215;29;969;-21
2021/11/13 00:35:05;;;;;;;;;;;;;;;;;;1022319;29;1003;-23
2021/11/13 00:35:36;;;;;;;;;;;;;;;;;;1020511;29;1131;-23
2021/11/13 00:36:06;;;;;;;;;;;;;;;;;;1018159;29;1176;-22
2021/11/13 00:36:36;;;;;;;;;;;;;;;;;;1018175;29;972;-21
2021/11/13 00:37:07;;;;;;;;;;;;;;;;;;1018280;29;1270;-21
2021/11/13 00:37:37;;;;;;;;;;;;;;;;;;1018178;29;989;-22
2021/11/13 00:38:08;;;;;;;;;;;;;;;;;;1018179;29;1021;-23
2021/11/13 00:38:38;;;;;;;;;;;;;;;;;;1018196;29;779;-23
2021/11/13 00:39:09;;;;;;;;;;;;;;;;;;1018209;29;1002;-21
2021/11/13 00:39:39;;;;;;;;;;;;;;;;;;1018284;29;909;-22
2021/11/13 00:40:10;;;;;;;;;;;;;;;;;;1017028;29;1298;-22
2021/11/13 00:40:44;;;;;;;;;;;;;;;;;;1018312;29;866;-21
2021/11/13 00:41:15;;;;;;;;;;;;;;;;;;1018082;29;932;-22
2021/11/13 00:41:46;;;;;;;;;;;;;;;;;;1013592;29;1907;-21
2021/11/13 00:42:16;;;;;;;;;;;;;;;;;;1013362;29;919;-21
2021/11/13 00:42:48;;;;;;;;;;;;;;;;;;1013625;29;942;-22
2021/11/13 00:43:20;;;;;;;;;;;;;;;;;;1013618;29;1092;-21
2021/11/13 00:43:50;;;;;;;;;;;;;;;;;;1018168;29;905;-22
2021/11/13 00:44:21;;;;;;;;;;;;;;;;;;1018208;29;914;-21
2021/11/13 00:44:51;;;;;;;;;;;;;;;;;;1018112;29;1042;-21
2021/11/13 00:45:21;;;;;;;;;;;;;;;;;;1018119;29;863;-22
2021/11/13 00:45:52;;;;;;;;;;;;;;;;;;1018390;29;973;-22
2021/11/13 00:46:22;;;;;;;;;;;;;;;;;;1018104;29;935;-22
2021/11/13 00:46:52;;;;;;;;;;;;;;;;;;1018034;29;859;-21
2021/11/13 00:47:23;;;;;;;;;;;;;;;;;;1018395;29;951;-21
2021/11/13 00:47:53;;;;;;;;;;;;;;;;;;1018012;29;922;-22
2021/11/13 00:48:23;;;;;;;;;;;;;;;;;;1018138;29;1071;-21
2021/11/13 00:48:54;;;;;;;;;;;;;;;;;;1018001;29;947;-22
2021/11/13 00:49:24;;;;;;;;;;;;;;;;;;1018061;29;988;-21
2021/11/13 00:49:55;;;;;;;;;;;;;;;;;;1018295;29;961;-22
2021/11/13 00:50:25;;;;;;;;;;;;;;;;;;1018332;29;941;-21
2021/11/13 00:50:56;;;;;;;;;;;;;;;;;;1018064;29;890;-22
2021/11/13 00:51:26;;;;;;;;;;;;;;;;;;1018228;29;879;-21
2021/11/13 00:51:57;;;;;;;;;;;;;;;;;;1013883;29;1143;-22
2021/11/13 00:52:27;;;;;;;;;;;;;;;;;;1013831;29;997;-24
2021/11/13 00:52:57;;;;;;;;;;;;;;;;;;1013934;29;906;-23
2021/11/13 00:53:28;;;;;;;;;;;;;;;;;;1013967;29;1025;-21
2021/11/13 00:53:58;;;;;;;;;;;;;;;;;;1018130;29;1060;-21
2021/11/13 00:54:30;;;;;;;;;;;;;;;;;;1018195;29;929;-22
2021/11/13 00:55:01;;;;;;;;;;;;;;;;;;1017362;29;1210;-22
2021/11/13 00:55:31;;;;;;;;;;;;;;;;;;1017540;29;935;-22
2021/11/13 00:56:01;;;;;;;;;;;;;;;;;;1017425;29;949;-21
2021/11/13 00:56:32;;;;;;;;;;;;;;;;;;1013658;29;946;-24
2021/11/13 00:57:04;;;;;;;;;;;;;;;;;;1009594;29;943;-22
2021/11/13 00:57:34;;;;;;;;;;;;;;;;;;1009511;29;961;-25
2021/11/13 00:58:05;;;;;;;;;;;;;;;;;;1010077;29;1135;-21
2021/11/13 00:58:36;;;;;;;;;;;;;;;;;;1018118;29;905;-21
2021/11/13 00:59:07;;;;;;;;;;;;;;;;;;1017932;29;1610;-23
2021/11/13 00:59:37;;;;;;;;;;;;;;;;;;1018206;29;925;-24
2021/11/13 01:00:09;;;;;;;;;;;;;;;;;;1018122;29;952;-22
2021/11/13 01:00:40;;;;;;;;;;;;;;;;;;1018108;29;1144;-21
2021/11/13 01:01:11;;;;;;;;;;;;;;;;;;1013270;29;896;-21
2021/11/13 01:01:41;;;;;;;;;;;;;;;;;;1013437;29;1982;-22
2021/11/13 01:02:11;;;;;;;;;;;;;;;;;;1013362;29;1571;-22
2021/11/13 01:02:42;;;;;;;;;;;;;;;;;;1013367;29;1030;-21
2021/11/13 01:03:12;;;;;;;;;;;;;;;;;;1018144;29;1062;-22
2021/11/13 01:03:43;;;;;;;;;;;;;;;;;;1017911;29;1296;-25
2021/11/13 01:04:13;;;;;;;;;;;;;;;;;;1018210;29;908;-21
2021/11/13 01:04:43;;;;;;;;;;;;;;;;;;1018133;29;883;-21
2021/11/13 01:05:15;;;;;;;;;;;;;;;;;;1017910;29;801;-22
2021/11/13 01:05:45;;;;;;;;;;;;;;;;;;1018179;29;855;-21
2021/11/13 01:06:16;;;;;;;;;;;;;;;;;;1018220;29;952;-21
2021/11/13 01:06:48;;;;;;;;;;;;;;;;;;1017894;29;825;-21
2021/11/13 01:07:18;;;;;;;;;;;;;;;;;;1018030;29;1004;-21
2021/11/13 01:07:48;;;;;;;;;;;;;;;;;;1017879;29;873;-22
2021/11/13 01:08:19;;;;;;;;;;;;;;;;;;1018232;29;946;-23
2021/11/13 01:08:49;;;;;;;;;;;;;;;;;;1017798;29;1066;-23
2021/11/13 01:09:20;;;;;;;;;;;;;;;;;;1013977;29;977;-22
2021/11/13 01:09:51;;;;;;;;;;;;;;;;;;1013619;29;973;-22
2021/11/13 01:10:21;;;;;;;;;;;;;;;;;;1013416;29;943;-21
2021/11/13 01:10:52;;;;;;;;;;;;;;;;;;1013969;29;1017;-21
2021/11/13 01:11:22;;;;;;;;;;;;;;;;;;1018212;29;862;-22
2021/11/13 01:11:53;;;;;;;;;;;;;;;;;;1017719;29;962;-22
2021/11/13 01:12:24;;;;;;;;;;;;;;;;;;1018332;29;1016;-21
2021/11/13 01:12:54;;;;;;;;;;;;;;;;;;1017813;29;793;-23
2021/11/13 01:13:25;;;;;;;;;;;;;;;;;;1018117;29;945;-21
2021/11/13 01:13:57;;;;;;;;;;;;;;;;;;1018198;29;972;-21
2021/11/13 01:14:28;;;;;;;;;;;;;;;;;;1018049;29;953;-22
2021/11/13 01:14:59;;;;;;;;;;;;;;;;;;1018179;29;811;-22
2021/11/13 01:15:29;;;;;;;;;;;;;;;;;;1018049;29;965;-22
2021/11/13 01:16:00;;;;;;;;;;;;;;;;;;1017961;29;1047;-21
2021/11/13 01:16:30;;;;;;;;;;;;;;;;;;1018073;29;831;-21
2021/11/13 01:17:01;;;;;;;;;;;;;;;;;;1018301;29;940;-23
2021/11/13 01:17:31;;;;;;;;;;;;;;;;;;1017919;29;937;-22
2021/11/13 01:18:02;;;;;;;;;;;;;;;;;;1018011;29;843;-21
2021/11/13 01:18:32;;;;;;;;;;;;;;;;;;1017929;29;960;-22
2021/11/13 01:19:04;;;;;;;;;;;;;;;;;;1017989;29;1374;-22
2021/11/13 01:19:34;;;;;;;;;;;;;;;;;;1017985;29;953;-22
2021/11/13 01:20:06;;;;;;;;;;;;;;;;;;1018082;29;1359;-22
2021/11/13 01:20:39;;;;;;;;;;;;;;;;;;1018017;29;912;-22
2021/11/13 01:21:10;;;;;;;;;;;;;;;;;;1018038;29;799;-22
2021/11/13 01:21:41;;;;;;;;;;;;;;;;;;1018085;29;1902;-22
2021/11/13 01:22:13;;;;;;;;;;;;;;;;;;1018117;29;897;-22
2021/11/13 01:22:44;;;;;;;;;;;;;;;;;;1017962;29;938;-22
2021/11/13 01:23:15;;;;;;;;;;;;;;;;;;1018038;29;1054;-21
2021/11/13 01:23:45;;;;;;;;;;;;;;;;;;1018096;29;991;-22
2021/11/13 01:24:16;;;;;;;;;;;;;;;;;;1018037;29;815;-21
2021/11/13 01:24:47;;;;;;;;;;;;;;;;;;1017973;29;1050;-23
2021/11/13 01:25:18;;;;;;;;;;;;;;;;;;1009584;29;999;-22
2021/11/13 01:25:48;;;;;;;;;;;;;;;;;;1009527;29;919;-22
2021/11/13 01:26:19;;;;;;;;;;;;;;;;;;1009587;29;944;-22
2021/11/13 01:26:50;;;;;;;;;;;;;;;;;;1009633;29;1054;-23
2021/11/13 01:27:20;;;;;;;;;;;;;;;;;;1018010;29;795;-22
2021/11/13 01:27:50;;;;;;;;;;;;;;;;;;1017847;29;928;-23
2021/11/13 01:28:21;;;;;;;;;;;;;;;;;;1017579;29;949;-21
2021/11/13 01:28:52;;;;;;;;;;;;;;;;;;1017646;29;767;-22
2021/11/13 01:29:22;;;;;;;;;;;;;;;;;;1018062;29;929;-22
2021/11/13 01:29:52;;;;;;;;;;;;;;;;;;1017940;29;980;-21
2021/11/13 01:30:23;;;;;;;;;;;;;;;;;;1017958;29;802;-23
2021/11/13 01:30:54;;;;;;;;;;;;;;;;;;1017882;29;1059;-22
2021/11/13 01:31:24;;;;;;;;;;;;;;;;;;1018189;29;923;-21
2021/11/13 01:31:55;;;;;;;;;;;;;;;;;;1017819;29;795;-22
2021/11/13 01:32:25;;;;;;;;;;;;;;;;;;1018161;29;1049;-22
2021/11/13 01:32:56;;;;;;;;;;;;;;;;;;1017899;29;965;-22
2021/11/13 01:33:26;;;;;;;;;;;;;;;;;;1018118;29;974;-22
2021/11/13 01:33:57;;;;;;;;;;;;;;;;;;1017883;29;877;-22
2021/11/13 01:34:28;;;;;;;;;;;;;;;;;;1017281;29;940;-21
2021/11/13 01:34:58;;;;;;;;;;;;;;;;;;1017269;29;866;-24
2021/11/13 01:35:28;;;;;;;;;;;;;;;;;;1017227;29;1059;-25
2021/11/13 01:35:59;;;;;;;;;;;;;;;;;;1017392;29;933;-23
2021/11/13 01:36:32;;;;;;;;;;;;;;;;;;1021943;29;795;-21
2021/11/13 01:37:02;;;;;;;;;;;;;;;;;;1021677;28;1296;-23
2021/11/13 01:37:33;;;;;;;;;;;;;;;;;;1021895;29;948;-21
2021/11/13 01:38:03;;;;;;;;;;;;;;;;;;1021812;29;925;-22
2021/11/13 01:38:34;;;;;;;;;;;;;;;;;;1021949;29;1066;-22
2021/11/13 01:39:05;;;;;;;;;;;;;;;;;;1017188;29;880;-22
2021/11/13 01:39:36;;;;;;;;;;;;;;;;;;1017156;29;1136;-24
2021/11/13 01:40:08;;;;;;;;;;;;;;;;;;1017395;29;909;-22
2021/11/13 01:40:39;;;;;;;;;;;;;;;;;;1017701;29;938;-22
2021/11/13 01:41:10;;;;;;;;;;;;;;;;;;1021707;29;864;-22
2021/11/13 01:41:40;;;;;;;;;;;;;;;;;;1021685;29;1966;-22
2021/11/13 01:42:10;;;;;;;;;;;;;;;;;;1021513;29;1085;-22
2021/11/13 01:42:43;;;;;;;;;;;;;;;;;;1021477;29;1079;-22
2021/11/13 01:43:14;;;;;;;;;;;;;;;;;;1021611;29;800;-22
2021/11/13 01:43:44;;;;;;;;;;;;;;;;;;1022071;29;934;-23
2021/11/13 01:44:15;;;;;;;;;;;;;;;;;;1021925;29;961;-22
2021/11/13 01:44:46;;;;;;;;;;;;;;;;;;1016474;29;1034;-21
2021/11/13 01:45:17;;;;;;;;;;;;;;;;;;1017211;29;919;-22
2021/11/13 01:45:48;;;;;;;;;;;;;;;;;;1017264;29;1068;-23
2021/11/13 01:46:18;;;;;;;;;;;;;;;;;;1013154;29;1305;-22
2021/11/13 01:46:48;;;;;;;;;;;;;;;;;;1017216;29;1140;-22
2021/11/13 01:47:19;;;;;;;;;;;;;;;;;;1017047;29;1300;-21
2021/11/13 01:47:49;;;;;;;;;;;;;;;;;;1016946;29;1154;-22
2021/11/13 01:48:23;;;;;;;;;;;;;;;;;;1022113;29;1010;-22
2021/11/13 01:48:57;;;;;;;;;;;;;;;;;;1021628;29;965;-22
2021/11/13 01:49:27;;;;;;;;;;;;;;;;;;1021882;29;815;-22
2021/11/13 01:49:58;;;;;;;;;;;;;;;;;;1021698;29;984;-25
2021/11/13 01:50:37;;;;;;;;;;;;;;;;;;1017301;29;1044;-23
2021/11/13 01:51:14;;;;;;;;;;;;;;;;;;1017330;29;1164;-21
2021/11/13 01:51:46;;;;;;;;;;;;;;;;;;1017186;29;962;-23
2021/11/13 01:52:17;;;;;;;;;;;;;;;;;;1019761;29;1215;-23
2021/11/13 01:52:48;;;;;;;;;;;;;;;;;;1021981;29;921;-22
2021/11/13 01:53:18;;;;;;;;;;;;;;;;;;1021743;29;922;-22
2021/11/13 01:53:50;;;;;;;;;;;;;;;;;;1021743;29;1066;-22
2021/11/13 01:54:20;;;;;;;;;;;;;;;;;;1022071;29;947;-21
2021/11/13 01:54:51;;;;;;;;;;;;;;;;;;1016953;29;1122;-22
2021/11/13 01:55:24;;;;;;;;;;;;;;;;;;1017257;29;963;-22
2021/11/13 01:55:56;;;;;;;;;;;;;;;;;;1017196;29;1438;-22
2021/11/13 01:56:26;;;;;;;;;;;;;;;;;;1017797;29;942;-24
2021/11/13 01:56:57;;;;;;;;;;;;;;;;;;1013083;29;1139;-21
2021/11/13 01:57:33;;;;;;;;;;;;;;;;;;1013381;29;988;-22
2021/11/13 01:58:05;;;;;;;;;;;;;;;;;;1013404;29;1048;-22
2021/11/13 01:58:35;;;;;;;;;;;;;;;;;;1015177;29;867;-22
2021/11/13 01:59:06;;;;;;;;;;;;;;;;;;1021742;29;999;-22
2021/11/13 01:59:37;;;;;;;;;;;;;;;;;;1021907;29;881;-22
2021/11/13 02:00:08;;;;;;;;;;;;;;;;;;1021699;29;994;-23
2021/11/13 02:00:48;;;;;;;;;;;;;;;;;;1021922;29;665;-22
2021/11/13 02:01:21;;;;;;;;;;;;;;;;;;1021830;29;1071;-22
2021/11/13 02:01:52;;;;;;;;;;;;;;;;;;1021889;29;1966;-21
2021/11/13 02:02:22;;;;;;;;;;;;;;;;;;1021751;29;946;-22
2021/11/13 02:02:53;;;;;;;;;;;;;;;;;;1021973;29;1025;-22
2021/11/13 02:03:24;;;;;;;;;;;;;;;;;;1013239;29;1051;-22
2021/11/13 02:03:54;;;;;;;;;;;;;;;;;;1013181;29;1052;-22
2021/11/13 02:04:25;;;;;;;;;;;;;;;;;;1013223;29;1070;-22
2021/11/13 02:04:57;;;;;;;;;;;;;;;;;;1014140;29;985;-22
2021/11/13 02:05:28;;;;;;;;;;;;;;;;;;1021525;29;946;-22
2021/11/13 02:05:58;;;;;;;;;;;;;;;;;;1022027;29;990;-21
2021/11/13 02:06:29;;;;;;;;;;;;;;;;;;1021713;29;1105;-26
2021/11/13 02:07:00;;;;;;;;;;;;;;;;;;1022069;29;918;-22
2021/11/13 02:07:30;;;;;;;;;;;;;;;;;;1021556;29;1093;-22
2021/11/13 02:08:01;;;;;;;;;;;;;;;;;;1021871;29;978;-23
2021/11/13 02:08:31;;;;;;;;;;;;;;;;;;1021742;29;902;-22
2021/11/13 02:09:03;;;;;;;;;;;;;;;;;;1019694;29;994;-23
2021/11/13 02:09:33;;;;;;;;;;;;;;;;;;1021824;29;1086;-21
2021/11/13 02:10:07;;;;;;;;;;;;;;;;;;1021839;29;823;-23
2021/11/13 02:10:38;;;;;;;;;;;;;;;;;;1021667;29;779;-22
2021/11/13 02:11:11;;;;;;;;;;;;;;;;;;1017148;29;898;-23
2021/11/13 02:11:41;;;;;;;;;;;;;;;;;;1017279;29;1034;-23
2021/11/13 02:12:13;;;;;;;;;;;;;;;;;;1017104;29;939;-21
2021/11/13 02:12:43;;;;;;;;;;;;;;;;;;1017693;29;1015;-21
2021/11/13 02:13:13;;;;;;;;;;;;;;;;;;1021752;29;963;-21
2021/11/13 02:13:44;;;;;;;;;;;;;;;;;;1021697;29;787;-22
2021/11/13 02:14:14;;;;;;;;;;;;;;;;;;1021676;29;1379;-22
2021/11/13 02:14:44;;;;;;;;;;;;;;;;;;1021426;29;1134;-22
2021/11/13 02:15:15;;;;;;;;;;;;;;;;;;1021728;29;997;-21
2021/11/13 02:15:45;;;;;;;;;;;;;;;;;;1021725;29;1038;-23
2021/11/13 02:16:16;;;;;;;;;;;;;;;;;;1021141;29;863;-22
2021/11/13 02:16:49;;;;;;;;;;;;;;;;;;1021787;29;1320;-22
2021/11/13 02:17:19;;;;;;;;;;;;;;;;;;1021408;29;1438;-22
2021/11/13 02:17:50;;;;;;;;;;;;;;;;;;1021608;29;1074;-22
2021/11/13 02:18:20;;;;;;;;;;;;;;;;;;1021542;29;1041;-22
2021/11/13 02:18:51;;;;;;;;;;;;;;;;;;1021720;29;899;-23
2021/11/13 02:19:21;;;;;;;;;;;;;;;;;;1021734;29;1033;-22
2021/11/13 02:19:51;;;;;;;;;;;;;;;;;;1021775;29;985;-22
2021/11/13 02:20:22;;;;;;;;;;;;;;;;;;1021768;29;947;-22
2021/11/13 02:20:52;;;;;;;;;;;;;;;;;;1021767;29;910;-24
2021/11/13 02:21:22;;;;;;;;;;;;;;;;;;1021588;29;892;-22
2021/11/13 02:21:53;;;;;;;;;;;;;;;;;;1021328;28;1923;-22
2021/11/13 02:22:24;;;;;;;;;;;;;;;;;;1016692;29;983;-24
2021/11/13 02:22:55;;;;;;;;;;;;;;;;;;1017103;29;971;-22
2021/11/13 02:23:26;;;;;;;;;;;;;;;;;;1017069;29;945;-25
2021/11/13 02:23:57;;;;;;;;;;;;;;;;;;1017504;29;1001;-23
2021/11/13 02:24:27;;;;;;;;;;;;;;;;;;1021632;29;827;-22
2021/11/13 02:24:58;;;;;;;;;;;;;;;;;;1017101;29;956;-22
2021/11/13 02:25:29;;;;;;;;;;;;;;;;;;1017112;29;1137;-22
2021/11/13 02:26:00;;;;;;;;;;;;;;;;;;1017217;29;911;-21
2021/11/13 02:26:32;;;;;;;;;;;;;;;;;;1017694;29;967;-22
2021/11/13 02:27:03;;;;;;;;;;;;;;;;;;1021946;29;927;-21
2021/11/13 02:27:33;;;;;;;;;;;;;;;;;;1021640;29;1009;-22
2021/11/13 02:28:07;;;;;;;;;;;;;;;;;;1021620;29;1023;-22
2021/11/13 02:28:38;;;;;;;;;;;;;;;;;;1021926;29;895;-21
2021/11/13 02:29:09;;;;;;;;;;;;;;;;;;1021377;29;1748;-22
2021/11/13 02:29:39;;;;;;;;;;;;;;;;;;1021820;29;851;-25
2021/11/13 02:30:11;;;;;;;;;;;;;;;;;;1021901;29;1059;-23
2021/11/13 02:30:42;;;;;;;;;;;;;;;;;;1021724;29;967;-24
2021/11/13 02:31:13;;;;;;;;;;;;;;;;;;1013158;29;1070;-21
2021/11/13 02:31:45;;;;;;;;;;;;;;;;;;1013091;29;1422;-21
2021/11/13 02:32:15;;;;;;;;;;;;;;;;;;1013091;29;1221;-22
2021/11/13 02:32:46;;;;;;;;;;;;;;;;;;1013583;29;1148;-22
2021/11/13 02:33:16;;;;;;;;;;;;;;;;;;1021681;29;1052;-21
2021/11/13 02:33:47;;;;;;;;;;;;;;;;;;1021710;29;940;-22
2021/11/13 02:34:20;;;;;;;;;;;;;;;;;;1021711;29;862;-21
2021/11/13 02:34:51;;;;;;;;;;;;;;;;;;1021754;29;1042;-21
2021/11/13 02:35:23;;;;;;;;;;;;;;;;;;1017074;29;1007;-21
2021/11/13 02:35:54;;;;;;;;;;;;;;;;;;1017127;29;1069;-22
2021/11/13 02:36:25;;;;;;;;;;;;;;;;;;1013746;29;1139;-22
2021/11/13 02:36:55;;;;;;;;;;;;;;;;;;1013742;29;1274;-21
2021/11/13 02:37:27;;;;;;;;;;;;;;;;;;1017378;29;906;-24
2021/11/13 02:37:58;;;;;;;;;;;;;;;;;;1017871;29;1000;-21
2021/11/13 02:38:32;;;;;;;;;;;;;;;;;;1017342;29;1440;-22
2021/11/13 02:39:05;;;;;;;;;;;;;;;;;;1017425;29;1022;-21
2021/11/13 02:39:35;;;;;;;;;;;;;;;;;;1017841;29;1001;-22
2021/11/13 02:40:07;;;;;;;;;;;;;;;;;;1017613;29;1172;-21
2021/11/13 02:40:41;;;;;;;;;;;;;;;;;;1017472;29;1401;-23
2021/11/13 02:41:11;;;;;;;;;;;;;;;;;;1017714;29;1005;-22
2021/11/13 02:41:44;;;;;;;;;;;;;;;;;;1012960;29;1907;-21
2021/11/13 02:42:14;;;;;;;;;;;;;;;;;;1013292;29;905;-20
2021/11/13 02:42:46;;;;;;;;;;;;;;;;;;1013020;29;903;-21
2021/11/13 02:43:17;;;;;;;;;;;;;;;;;;1013853;29;1108;-22
2021/11/13 02:43:48;;;;;;;;;;;;;;;;;;1017726;29;1458;-21
2021/11/13 02:44:21;;;;;;;;;;;;;;;;;;1017517;29;994;-22
2021/11/13 02:44:52;;;;;;;;;;;;;;;;;;1009420;29;939;-21
2021/11/13 02:45:22;;;;;;;;;;;;;;;;;;1009160;29;883;-21
2021/11/13 02:45:54;;;;;;;;;;;;;;;;;;1009336;29;1092;-21
2021/11/13 02:46:25;;;;;;;;;;;;;;;;;;1009528;29;828;-21
2021/11/13 02:46:59;;;;;;;;;;;;;;;;;;1017474;29;1124;-23
2021/11/13 02:47:30;;;;;;;;;;;;;;;;;;1017660;29;982;-21
2021/11/13 02:48:01;;;;;;;;;;;;;;;;;;1017648;29;946;-22
2021/11/13 02:48:34;;;;;;;;;;;;;;;;;;1017594;29;1091;-23
2021/11/13 02:49:05;;;;;;;;;;;;;;;;;;1017531;29;914;-21
2021/11/13 02:49:35;;;;;;;;;;;;;;;;;;1017347;29;1420;-21
2021/11/13 02:50:09;;;;;;;;;;;;;;;;;;1017600;29;955;-22
2021/11/13 02:50:43;;;;;;;;;;;;;;;;;;1017557;29;920;-23
2021/11/13 02:51:13;;;;;;;;;;;;;;;;;;1017766;29;1061;-20
2021/11/13 02:51:44;;;;;;;;;;;;;;;;;;1017787;29;852;-21
2021/11/13 02:52:15;;;;;;;;;;;;;;;;;;1017741;29;1038;-21
2021/11/13 02:52:47;;;;;;;;;;;;;;;;;;1017396;29;933;-20
2021/11/13 02:53:19;;;;;;;;;;;;;;;;;;1009174;29;918;-22
2021/11/13 02:53:51;;;;;;;;;;;;;;;;;;1009281;29;930;-21
2021/11/13 02:54:22;;;;;;;;;;;;;;;;;;1009172;29;936;-21
2021/11/13 02:54:53;;;;;;;;;;;;;;;;;;1009997;29;956;-22
2021/11/13 02:55:23;;;;;;;;;;;;;;;;;;1017432;29;837;-21
2021/11/13 02:55:55;;;;;;;;;;;;;;;;;;1017858;29;939;-22
2021/11/13 02:56:25;;;;;;;;;;;;;;;;;;1017544;29;788;-21
2021/11/13 02:56:56;;;;;;;;;;;;;;;;;;1017766;29;949;-22
2021/11/13 02:57:26;;;;;;;;;;;;;;;;;;1017599;29;977;-21
2021/11/13 02:57:57;;;;;;;;;;;;;;;;;;1017864;29;803;-22
2021/11/13 02:58:27;;;;;;;;;;;;;;;;;;1017670;29;937;-22
2021/11/13 02:58:57;;;;;;;;;;;;;;;;;;1017533;29;992;-23
2021/11/13 02:59:30;;;;;;;;;;;;;;;;;;1017459;29;815;-22
2021/11/13 03:00:00;;;;;;;;;;;;;;;;;;1017803;29;1129;-21
2021/11/13 03:00:31;;;;;;;;;;;;;;;;;;1017772;29;924;-22
2021/11/13 03:01:04;;;;;;;;;;;;;;;;;;1017481;29;993;-22
2021/11/13 03:01:34;;;;;;;;;;;;;;;;;;1009057;29;1228;-22
2021/11/13 03:02:07;;;;;;;;;;;;;;;;;;1009317;29;942;-22
2021/11/13 03:02:39;;;;;;;;;;;;;;;;;;1009163;29;1034;-22
2021/11/13 03:03:14;;;;;;;;;;;;;;;;;;1001844;29;1010;-25
2021/11/13 03:03:52;;;;;;;;;;;;;;;;;;1005307;29;1009;-21
2021/11/13 03:04:25;;;;;;;;;;;;;;;;;;1005136;29;1122;-22
2021/11/13 03:04:55;;;;;;;;;;;;;;;;;;1011383;29;919;-21
2021/11/13 03:05:27;;;;;;;;;;;;;;;;;;1017410;29;1010;-22
2021/11/13 03:05:58;;;;;;;;;;;;;;;;;;1017721;29;872;-22
2021/11/13 03:06:29;;;;;;;;;;;;;;;;;;1017528;29;1004;-21
2021/11/13 03:06:59;;;;;;;;;;;;;;;;;;1017647;29;1113;-21
2021/11/13 03:07:29;;;;;;;;;;;;;;;;;;1017405;29;1150;-21
2021/11/13 03:08:05;;;;;;;;;;;;;;;;;;1017770;29;817;-21
2021/11/13 03:08:36;;;;;;;;;;;;;;;;;;1017491;29;1191;-21
2021/11/13 03:09:06;;;;;;;;;;;;;;;;;;1017615;29;1002;-21
2021/11/13 03:09:37;;;;;;;;;;;;;;;;;;1017562;29;1014;-22
2021/11/13 03:10:08;;;;;;;;;;;;;;;;;;1017672;29;783;-22
2021/11/13 03:10:39;;;;;;;;;;;;;;;;;;1017869;29;1015;-21
2021/11/13 03:11:10;;;;;;;;;;;;;;;;;;1017632;29;882;-22
2021/11/13 03:11:41;;;;;;;;;;;;;;;;;;1017514;29;800;-21
2021/11/13 03:12:11;;;;;;;;;;;;;;;;;;1017820;29;967;-22
2021/11/13 03:12:44;;;;;;;;;;;;;;;;;;1017620;29;1057;-22
2021/11/13 03:13:15;;;;;;;;;;;;;;;;;;1017696;29;899;-21
2021/11/13 03:13:51;;;;;;;;;;;;;;;;;;1017584;29;960;-22
2021/11/13 03:14:22;;;;;;;;;;;;;;;;;;1017732;29;971;-22
2021/11/13 03:14:52;;;;;;;;;;;;;;;;;;1017649;29;943;-22
2021/11/13 03:15:24;;;;;;;;;;;;;;;;;;1017514;29;931;-21
2021/11/13 03:15:54;;;;;;;;;;;;;;;;;;1017670;29;1060;-22
2021/11/13 03:16:25;;;;;;;;;;;;;;;;;;1017412;29;896;-22
2021/11/13 03:17:02;;;;;;;;;;;;;;;;;;1017707;29;836;-21
2021/11/13 03:17:32;;;;;;;;;;;;;;;;;;1017606;29;943;-21
2021/11/13 03:18:03;;;;;;;;;;;;;;;;;;1009020;29;993;-21
2021/11/13 03:18:34;;;;;;;;;;;;;;;;;;1009113;29;1049;-22
2021/11/13 03:19:04;;;;;;;;;;;;;;;;;;1009030;29;1038;-21
2021/11/13 03:19:35;;;;;;;;;;;;;;;;;;1009467;29;1180;-21
2021/11/13 03:20:10;;;;;;;;;;;;;;;;;;1008902;29;1081;-23
2021/11/13 03:20:40;;;;;;;;;;;;;;;;;;1008964;29;974;-22
2021/11/13 03:21:11;;;;;;;;;;;;;;;;;;1009260;29;965;-22
2021/11/13 03:21:44;;;;;;;;;;;;;;;;;;1010881;29;1968;-23
2021/11/13 03:22:15;;;;;;;;;;;;;;;;;;1017652;29;808;-21
2021/11/13 03:22:46;;;;;;;;;;;;;;;;;;1009217;29;1118;-22
2021/11/13 03:23:17;;;;;;;;;;;;;;;;;;1008971;29;940;-22
2021/11/13 03:23:47;;;;;;;;;;;;;;;;;;1005094;29;1063;-21
2021/11/13 03:24:18;;;;;;;;;;;;;;;;;;1005197;29;991;-21
2021/11/13 03:24:48;;;;;;;;;;;;;;;;;;1005300;29;920;-22
2021/11/13 03:25:20;;;;;;;;;;;;;;;;;;1005177;29;904;-23
2021/11/13 03:26:12;;;;;;;;;;;;;;;;;;1016927;29;1531;-24
2021/11/13 03:26:43;;;;;;;;;;;;;;;;;;1016023;29;1388;-23
2021/11/13 03:27:13;;;;;;;;;;;;;;;;;;1017180;29;1121;-21
2021/11/13 03:27:46;;;;;;;;;;;;;;;;;;1017433;29;799;-22
2021/11/13 03:28:19;;;;;;;;;;;;;;;;;;1017459;29;941;-21
2021/11/13 03:28:51;;;;;;;;;;;;;;;;;;1017506;29;961;-22
2021/11/13 03:29:27;;;;;;;;;;;;;;;;;;1012921;29;972;-24
2021/11/13 03:29:57;;;;;;;;;;;;;;;;;;1012861;29;965;-21
2021/11/13 03:30:28;;;;;;;;;;;;;;;;;;1012924;29;1001;-24
2021/11/13 03:31:01;;;;;;;;;;;;;;;;;;1009997;29;1112;-22
2021/11/13 03:31:32;;;;;;;;;;;;;;;;;;1013492;29;994;-22
2021/11/13 03:32:07;;;;;;;;;;;;;;;;;;1013373;29;864;-21
2021/11/13 03:32:38;;;;;;;;;;;;;;;;;;1014541;29;916;-21
2021/11/13 03:33:09;;;;;;;;;;;;;;;;;;1008850;29;1368;-22
2021/11/13 03:33:40;;;;;;;;;;;;;;;;;;1009187;29;1042;-21
2021/11/13 03:34:10;;;;;;;;;;;;;;;;;;1009127;29;1022;-21
2021/11/13 03:34:41;;;;;;;;;;;;;;;;;;1009272;29;1060;-22
2021/11/13 03:35:16;;;;;;;;;;;;;;;;;;1017750;29;906;-21
2021/11/13 03:35:47;;;;;;;;;;;;;;;;;;1017451;29;857;-22
2021/11/13 03:36:19;;;;;;;;;;;;;;;;;;1019048;29;1091;-22
2021/11/13 03:36:50;;;;;;;;;;;;;;;;;;1021311;28;1293;-21
2021/11/13 03:37:20;;;;;;;;;;;;;;;;;;1021487;29;1005;-22
2021/11/13 03:37:51;;;;;;;;;;;;;;;;;;1021578;29;875;-20
2021/11/13 03:38:22;;;;;;;;;;;;;;;;;;1021570;29;819;-21